createdAt,value
2024-01-20T00:00:03.516Z,0.87
2024-01-20T00:01:03.632Z,0.84
2024-01-20T00:02:03.583Z,0.86
2024-01-20T00:03:03.519Z,0.86
2024-01-20T00:04:03.523Z,0.84
2024-01-20T00:05:03.514Z,0.87
2024-01-20T00:06:03.528Z,0.83
2024-01-20T00:07:03.509Z,0.86
2024-01-20T00:08:03.456Z,0.86
2024-01-20T00:09:04.360Z,0.86
2024-01-20T00:10:04.379Z,0.86
2024-01-20T00:11:03.446Z,0.86
2024-01-20T00:12:03.383Z,0.84
2024-01-20T00:13:03.413Z,0.86
2024-01-20T00:14:03.481Z,0.84
2024-01-20T00:15:03.518Z,0.84
2024-01-20T00:16:03.344Z,0.84
2024-01-20T00:17:09.083Z,0.86
2024-01-20T00:18:05.450Z,0.86
2024-01-20T00:19:03.389Z,0.83
2024-01-20T00:20:03.481Z,0.83
2024-01-20T00:21:03.285Z,0.84
2024-01-20T00:22:03.257Z,0.83
2024-01-20T00:23:03.295Z,0.83
2024-01-20T00:24:03.298Z,0.84
2024-01-20T00:25:03.251Z,0.83
2024-01-20T00:26:03.297Z,0.83
2024-01-20T00:27:03.238Z,0.80
2024-01-20T00:28:03.228Z,0.83
2024-01-20T00:29:03.252Z,0.79
2024-01-20T00:30:03.282Z,0.79
2024-01-20T00:31:03.167Z,0.80
2024-01-20T00:32:03.258Z,0.78
2024-01-20T00:33:03.389Z,0.80
2024-01-20T00:34:03.989Z,0.79
2024-01-20T00:35:07.293Z,0.83
2024-01-20T00:36:04.213Z,0.79
2024-01-20T00:37:03.140Z,0.79
2024-01-20T00:38:04.106Z,0.79
2024-01-20T00:39:03.107Z,0.83
2024-01-20T00:40:03.084Z,0.83
2024-01-20T00:41:03.113Z,0.83
2024-01-20T00:42:03.104Z,0.80
2024-01-20T00:43:03.178Z,0.83
2024-01-20T00:44:03.076Z,0.83
2024-01-20T00:45:03.032Z,0.80
2024-01-20T00:46:03.026Z,0.79
2024-01-20T00:47:02.994Z,0.79
2024-01-20T00:48:03.042Z,0.80
2024-01-20T00:49:02.987Z,0.80
2024-01-20T00:50:02.996Z,0.80
2024-01-20T00:51:02.966Z,0.83
2024-01-20T00:52:03.942Z,0.79
2024-01-20T00:53:02.997Z,0.79
2024-01-20T00:54:02.978Z,0.79
2024-01-20T00:55:02.915Z,0.80
2024-01-20T00:56:02.961Z,0.83
2024-01-20T00:57:02.903Z,0.80
2024-01-20T00:58:02.909Z,0.83
2024-01-20T00:59:02.922Z,0.83
2024-01-20T01:00:02.937Z,0.83
2024-01-20T01:01:02.867Z,0.80
2024-01-20T01:02:02.921Z,0.80
2024-01-20T01:03:02.868Z,0.83
2024-01-20T01:04:02.836Z,0.83
2024-01-20T01:05:03.548Z,0.84
2024-01-20T01:06:03.925Z,0.83
2024-01-20T01:07:02.787Z,0.79
2024-01-20T01:08:02.873Z,0.79
2024-01-20T01:09:02.783Z,0.79
2024-01-20T01:10:02.767Z,0.80
2024-01-20T01:11:02.807Z,0.80
2024-01-20T01:12:02.785Z,0.80
2024-01-20T01:13:02.749Z,0.83
2024-01-20T01:14:02.785Z,0.84
2024-01-20T01:15:02.787Z,0.83
2024-01-20T01:16:02.705Z,0.84
2024-01-20T01:17:02.791Z,0.84
2024-01-20T01:18:02.770Z,0.83
2024-01-20T01:19:02.683Z,0.84
2024-01-20T01:20:02.818Z,0.84
2024-01-20T01:21:02.664Z,0.83
2024-01-20T01:22:02.639Z,0.83
2024-01-20T01:23:02.674Z,0.80
2024-01-20T01:24:02.661Z,0.80
2024-01-20T01:25:02.614Z,0.83
2024-01-20T01:26:02.713Z,0.80
2024-01-20T01:27:02.634Z,0.80
2024-01-20T01:28:02.563Z,0.83
2024-01-20T01:29:02.593Z,0.80
2024-01-20T01:30:02.708Z,0.80
2024-01-20T01:31:02.557Z,0.83
2024-01-20T01:32:02.591Z,0.80
2024-01-20T01:33:02.582Z,0.79
2024-01-20T01:34:02.570Z,0.84
2024-01-20T01:35:02.649Z,0.83
2024-01-20T01:36:02.518Z,0.80
2024-01-20T01:37:02.486Z,0.83
2024-01-20T01:38:02.578Z,0.83
2024-01-20T01:39:02.476Z,0.84
2024-01-20T01:40:02.437Z,0.83
2024-01-20T01:41:02.506Z,0.83
2024-01-20T01:42:02.458Z,0.86
2024-01-20T01:43:02.543Z,0.86
2024-01-20T01:44:02.550Z,0.87
2024-01-20T01:45:02.393Z,0.88
2024-01-20T01:46:02.388Z,0.87
2024-01-20T01:47:02.425Z,0.88
2024-01-20T01:48:02.497Z,0.88
2024-01-20T01:49:02.372Z,0.87
2024-01-20T01:50:02.392Z,0.87
2024-01-20T01:51:02.344Z,0.86
2024-01-20T01:52:02.305Z,0.86
2024-01-20T01:53:02.324Z,0.87
2024-01-20T01:54:02.360Z,0.86
2024-01-20T01:55:02.294Z,0.87
2024-01-20T01:56:02.287Z,0.87
2024-01-20T01:57:02.304Z,0.86
2024-01-20T01:58:02.290Z,0.86
2024-01-20T01:59:02.247Z,0.84
2024-01-20T02:00:02.312Z,0.88
2024-01-20T02:01:02.268Z,0.87
2024-01-20T02:02:02.204Z,0.87
2024-01-20T02:03:02.321Z,0.87
2024-01-20T02:04:02.233Z,0.87
2024-01-20T02:05:02.208Z,0.90
2024-01-20T02:06:02.275Z,0.87
2024-01-20T02:07:02.189Z,0.88
2024-01-20T02:08:02.167Z,0.87
2024-01-20T02:09:02.155Z,0.88
2024-01-20T02:10:02.145Z,0.88
2024-01-20T02:11:02.099Z,0.93
2024-01-20T02:12:02.199Z,0.90
2024-01-20T02:13:02.102Z,0.91
2024-01-20T02:14:02.071Z,0.90
2024-01-20T02:15:02.137Z,0.90
2024-01-20T02:16:02.055Z,0.91
2024-01-20T02:17:02.057Z,0.91
2024-01-20T02:18:02.154Z,0.91
2024-01-20T02:19:02.110Z,0.91
2024-01-20T02:20:02.007Z,0.90
2024-01-20T02:21:02.034Z,0.91
2024-01-20T02:22:01.978Z,0.91
2024-01-20T02:23:02.005Z,0.93
2024-01-20T02:24:02.023Z,0.91
2024-01-20T02:25:01.972Z,0.93
2024-01-20T02:26:01.959Z,0.91
2024-01-20T02:27:02.018Z,0.93
2024-01-20T02:28:01.956Z,0.90
2024-01-20T02:29:01.930Z,0.93
2024-01-20T02:30:02.009Z,0.93
2024-01-20T02:31:01.910Z,0.91
2024-01-20T02:32:01.975Z,0.91
2024-01-20T02:33:01.977Z,0.90
2024-01-20T02:34:01.969Z,0.91
2024-01-20T02:35:01.869Z,0.93
2024-01-20T02:36:01.907Z,0.91
2024-01-20T02:37:01.855Z,0.91
2024-01-20T02:38:01.836Z,0.94
2024-01-20T02:39:01.840Z,0.91
2024-01-20T02:40:01.816Z,0.91
2024-01-20T02:41:01.806Z,0.88
2024-01-20T02:42:01.883Z,0.90
2024-01-20T02:43:01.767Z,0.88
2024-01-20T02:44:01.754Z,0.88
2024-01-20T02:45:01.813Z,0.91
2024-01-20T02:46:01.734Z,0.91
2024-01-20T02:47:01.727Z,0.90
2024-01-20T02:48:01.950Z,0.88
2024-01-20T02:49:01.916Z,0.87
2024-01-20T02:50:01.837Z,0.88
2024-01-20T02:51:01.694Z,0.88
2024-01-20T02:52:01.669Z,0.88
2024-01-20T02:53:01.656Z,0.87
2024-01-20T02:54:01.693Z,0.88
2024-01-20T02:55:01.687Z,0.88
2024-01-20T02:56:01.640Z,0.87
2024-01-20T02:57:01.665Z,0.87
2024-01-20T02:58:01.589Z,0.86
2024-01-20T02:59:01.605Z,0.88
2024-01-20T03:00:01.694Z,0.87
2024-01-20T03:01:01.625Z,0.86
2024-01-20T03:02:01.553Z,0.83
2024-01-20T03:03:01.766Z,0.83
2024-01-20T03:04:01.635Z,0.83
2024-01-20T03:05:01.627Z,0.83
2024-01-20T03:06:01.620Z,0.84
2024-01-20T03:07:01.522Z,0.80
2024-01-20T03:08:01.522Z,0.80
2024-01-20T03:09:01.560Z,0.79
2024-01-20T03:10:01.476Z,0.76
2024-01-20T03:11:01.487Z,0.78
2024-01-20T03:12:01.551Z,0.75
2024-01-20T03:13:01.467Z,0.70
2024-01-20T03:14:01.508Z,0.70
2024-01-20T03:15:01.611Z,0.69
2024-01-20T03:16:01.422Z,0.65
2024-01-20T03:17:01.456Z,0.62
2024-01-20T03:18:01.582Z,0.62
2024-01-20T03:19:01.417Z,0.57
2024-01-20T03:20:01.484Z,0.55
2024-01-20T03:21:01.397Z,0.55
2024-01-20T03:22:01.367Z,0.50
2024-01-20T03:23:01.369Z,0.50
2024-01-20T03:24:01.447Z,0.49
2024-01-20T03:25:01.340Z,0.46
2024-01-20T03:26:02.269Z,0.46
2024-01-20T03:27:01.419Z,0.44
2024-01-20T03:28:02.255Z,0.42
2024-01-20T03:29:01.325Z,0.41
2024-01-20T03:30:01.339Z,0.42
2024-01-20T03:31:01.332Z,0.39
2024-01-20T03:32:01.328Z,0.39
2024-01-20T03:33:01.391Z,0.41
2024-01-20T03:34:01.352Z,0.39
2024-01-20T03:35:01.254Z,0.39
2024-01-20T03:36:01.277Z,0.36
2024-01-20T03:37:01.213Z,0.38
2024-01-20T03:38:01.216Z,0.38
2024-01-20T03:39:01.234Z,0.36
2024-01-20T03:40:01.169Z,0.35
2024-01-20T03:41:01.166Z,0.36
2024-01-20T03:42:01.267Z,0.36
2024-01-20T03:43:01.142Z,0.35
2024-01-20T03:44:01.120Z,0.31
2024-01-20T03:45:01.178Z,0.33
2024-01-20T03:46:01.094Z,0.31
2024-01-20T03:47:01.106Z,0.29
2024-01-20T03:48:01.218Z,0.28
2024-01-20T03:49:02.200Z,0.29
2024-01-20T03:50:01.232Z,0.29
2024-01-20T03:51:01.175Z,0.31
2024-01-20T03:52:01.035Z,0.29
2024-01-20T03:53:01.032Z,0.29
2024-01-20T03:54:01.049Z,0.31
2024-01-20T03:55:01.032Z,0.31
2024-01-20T03:56:00.999Z,0.29
2024-01-20T03:57:01.087Z,0.28
2024-01-20T03:58:00.987Z,0.28
2024-01-20T03:59:00.975Z,0.29
2024-01-20T04:00:01.060Z,0.28
2024-01-20T04:01:01.031Z,0.24
2024-01-20T04:02:00.933Z,0.24
2024-01-20T04:03:01.008Z,0.24
2024-01-20T04:04:00.969Z,0.26
2024-01-20T04:05:01.911Z,0.21
2024-01-20T04:06:00.962Z,0.26
2024-01-20T04:07:01.021Z,0.28
2024-01-20T04:08:00.869Z,0.21
2024-01-20T04:09:00.951Z,0.18
2024-01-20T04:10:00.896Z,0.20
2024-01-20T04:11:00.861Z,0.18
2024-01-20T04:12:00.875Z,0.18
2024-01-20T04:13:00.851Z,0.15
2024-01-20T04:14:00.869Z,0.14
2024-01-20T04:15:00.907Z,0.13
2024-01-20T04:16:00.791Z,0.11
2024-01-20T04:17:00.786Z,0.08
2024-01-20T04:18:00.880Z,0.04
2024-01-20T04:19:00.942Z,0.04
2024-01-20T04:20:00.734Z,0.04
2024-01-20T04:21:00.763Z,0.03
2024-01-20T04:22:00.722Z,0.00
2024-01-20T04:23:00.743Z,-0.01
2024-01-20T04:24:00.847Z,-0.03
2024-01-20T04:25:00.697Z,-0.07
2024-01-20T04:26:00.701Z,-0.08
2024-01-20T04:27:00.778Z,-0.08
2024-01-20T04:28:00.658Z,-0.11
2024-01-20T04:29:00.655Z,-0.10
2024-01-20T04:30:00.793Z,-0.14
2024-01-20T04:31:00.643Z,-0.15
2024-01-20T04:32:01.592Z,-0.14
2024-01-20T04:33:00.650Z,-0.15
2024-01-20T04:34:00.665Z,-0.18
2024-01-20T04:35:00.611Z,-0.18
2024-01-20T04:36:01.604Z,-0.18
2024-01-20T04:37:00.588Z,-0.18
2024-01-20T04:38:00.576Z,-0.21
2024-01-20T04:39:00.586Z,-0.16
2024-01-20T04:40:00.564Z,-0.16
2024-01-20T04:41:00.541Z,-0.16
2024-01-20T04:42:00.619Z,-0.18
2024-01-20T04:43:00.517Z,-0.16
2024-01-20T04:44:00.523Z,-0.21
2024-01-20T04:45:00.624Z,-0.19
2024-01-20T04:46:00.467Z,-0.19
2024-01-20T04:47:00.475Z,-0.16
2024-01-20T04:48:00.574Z,-0.19
2024-01-20T04:49:01.443Z,-0.18
2024-01-20T04:50:00.431Z,-0.18
2024-01-20T04:51:00.468Z,-0.19
2024-01-20T04:52:00.401Z,-0.18
2024-01-20T04:53:00.414Z,-0.19
2024-01-20T04:54:00.493Z,-0.16
2024-01-20T04:55:00.376Z,-0.15
2024-01-20T04:56:00.366Z,-0.10
2024-01-20T04:57:00.401Z,-0.14
2024-01-20T04:58:00.341Z,-0.16
2024-01-20T04:59:00.339Z,-0.15
2024-01-20T05:00:00.625Z,-0.15
2024-01-20T05:01:01.302Z,-0.18
2024-01-20T05:02:00.294Z,-0.16
2024-01-20T05:03:00.373Z,-0.18
2024-01-20T05:04:00.384Z,-0.19
2024-01-20T05:05:01.239Z,-0.18
2024-01-20T05:06:00.385Z,-0.19
2024-01-20T05:07:00.368Z,-0.19
2024-01-20T05:08:00.248Z,-0.19
2024-01-20T05:09:00.308Z,-0.18
2024-01-20T05:10:00.252Z,-0.18
2024-01-20T05:11:00.196Z,-0.21
2024-01-20T05:12:00.297Z,-0.22
2024-01-20T05:13:00.196Z,-0.22
2024-01-20T05:14:00.189Z,-0.22
2024-01-20T05:15:00.278Z,-0.23
2024-01-20T05:16:00.146Z,-0.26
2024-01-20T05:17:00.168Z,-0.26
2024-01-20T05:18:00.446Z,-0.25
2024-01-20T05:19:00.337Z,-0.26
2024-01-20T05:20:00.278Z,-0.28
2024-01-20T05:21:00.137Z,-0.29
2024-01-20T05:22:00.106Z,-0.31
2024-01-20T05:23:00.080Z,-0.29
2024-01-20T05:24:00.193Z,-0.26
2024-01-20T05:25:00.064Z,-0.33
2024-01-20T05:26:00.058Z,-0.26
2024-01-20T05:27:00.065Z,-0.26
2024-01-20T05:28:00.043Z,-0.28
2024-01-20T05:29:00.012Z,-0.28
2024-01-20T05:30:00.086Z,-0.28
2024-01-20T05:30:59.989Z,-0.31
2024-01-20T05:31:59.997Z,-0.26
2024-01-20T05:33:00.042Z,-0.29
2024-01-20T05:34:00.390Z,-0.29
2024-01-20T05:34:59.977Z,-0.26
2024-01-20T05:36:00.017Z,-0.26
2024-01-20T05:36:59.966Z,-0.26
2024-01-20T05:37:59.930Z,-0.23
2024-01-20T05:38:59.930Z,-0.22
2024-01-20T05:39:59.961Z,-0.21
2024-01-20T05:40:59.885Z,-0.21
2024-01-20T05:41:59.998Z,-0.19
2024-01-20T05:42:59.872Z,-0.23
2024-01-20T05:43:59.866Z,-0.23
2024-01-20T05:44:59.887Z,-0.25
2024-01-20T05:46:00.000Z,-0.23
2024-01-20T05:46:59.856Z,-0.25
2024-01-20T05:48:00.136Z,-0.23
2024-01-20T05:48:59.949Z,-0.25
2024-01-20T05:49:59.826Z,-0.23
2024-01-20T05:50:59.839Z,-0.23
2024-01-20T05:51:59.788Z,-0.25
2024-01-20T05:52:59.773Z,-0.25
2024-01-20T05:53:59.867Z,-0.25
2024-01-20T05:54:59.742Z,-0.22
2024-01-20T05:55:59.769Z,-0.25
2024-01-20T05:56:59.754Z,-0.25
2024-01-20T05:57:59.773Z,-0.23
2024-01-20T05:58:59.704Z,-0.23
2024-01-20T05:59:59.785Z,-0.25
2024-01-20T06:00:59.724Z,-0.23
2024-01-20T06:01:59.687Z,-0.23
2024-01-20T06:03:00.659Z,-0.25
2024-01-20T06:03:59.740Z,-0.23
2024-01-20T06:04:59.719Z,-0.23
2024-01-20T06:06:00.711Z,-0.21
2024-01-20T06:06:59.630Z,-0.22
2024-01-20T06:07:59.631Z,-0.22
2024-01-20T06:08:59.662Z,-0.18
2024-01-20T06:09:59.614Z,-0.18
2024-01-20T06:10:59.602Z,-0.15
2024-01-20T06:11:59.632Z,-0.16
2024-01-20T06:12:59.568Z,-0.15
2024-01-20T06:13:59.563Z,-0.15
2024-01-20T06:14:59.621Z,-0.15
2024-01-20T06:15:59.550Z,-0.18
2024-01-20T06:16:59.530Z,-0.11
2024-01-20T06:17:59.610Z,-0.15
2024-01-20T06:18:59.550Z,-0.15
2024-01-20T06:19:59.517Z,-0.15
2024-01-20T06:20:59.496Z,-0.11
2024-01-20T06:21:59.490Z,-0.10
2024-01-20T06:22:59.490Z,-0.14
2024-01-20T06:23:59.756Z,-0.14
2024-01-20T06:24:59.427Z,-0.15
2024-01-20T06:25:59.432Z,-0.11
2024-01-20T06:26:59.468Z,-0.15
2024-01-20T06:27:59.415Z,-0.15
2024-01-20T06:28:59.402Z,-0.16
2024-01-20T06:29:59.533Z,-0.18
2024-01-20T06:30:59.393Z,-0.15
2024-01-20T06:31:59.366Z,-0.11
2024-01-20T06:32:59.551Z,-0.15
2024-01-20T06:33:59.509Z,-0.15
2024-01-20T06:34:59.376Z,-0.15
2024-01-20T06:35:59.394Z,-0.14
2024-01-20T06:36:59.292Z,-0.15
2024-01-20T06:37:59.315Z,-0.15
2024-01-20T06:38:59.319Z,-0.16
2024-01-20T06:39:59.339Z,-0.16
2024-01-20T06:40:59.266Z,-0.18
2024-01-20T06:41:59.406Z,-0.19
2024-01-20T06:42:59.263Z,-0.18
2024-01-20T06:43:59.249Z,-0.19
2024-01-20T06:45:01.173Z,-0.18
2024-01-20T06:45:59.248Z,-0.19
2024-01-20T06:46:59.205Z,-0.21
2024-01-20T06:47:59.406Z,-0.19
2024-01-20T06:48:59.296Z,-0.21
2024-01-20T06:49:59.197Z,-0.19
2024-01-20T06:50:59.176Z,-0.19
2024-01-20T06:51:59.147Z,-0.19
2024-01-20T06:52:59.140Z,-0.19
2024-01-20T06:53:59.494Z,-0.22
2024-01-20T06:54:59.126Z,-0.22
2024-01-20T06:55:59.108Z,-0.22
2024-01-20T06:56:59.109Z,-0.21
2024-01-20T06:57:59.089Z,-0.22
2024-01-20T06:58:59.065Z,-0.23
2024-01-20T06:59:59.139Z,-0.23
2024-01-20T07:00:59.086Z,-0.22
2024-01-20T07:01:59.048Z,-0.23
2024-01-20T07:02:59.100Z,-0.22
2024-01-20T07:03:59.134Z,-0.21
2024-01-20T07:04:59.024Z,-0.22
2024-01-20T07:05:59.135Z,-0.21
2024-01-20T07:06:59.024Z,-0.22
2024-01-20T07:07:58.989Z,-0.23
2024-01-20T07:08:58.990Z,-0.25
2024-01-20T07:09:58.981Z,-0.21
2024-01-20T07:10:58.951Z,-0.19
2024-01-20T07:11:59.368Z,-0.19
2024-01-20T07:12:58.919Z,-0.21
2024-01-20T07:13:58.938Z,-0.19
2024-01-20T07:14:58.945Z,-0.19
2024-01-20T07:15:58.903Z,-0.21
2024-01-20T07:16:58.881Z,-0.18
2024-01-20T07:17:58.961Z,-0.19
2024-01-20T07:18:58.919Z,-0.19
2024-01-20T07:19:58.862Z,-0.21
2024-01-20T07:20:58.897Z,-0.19
2024-01-20T07:21:58.833Z,-0.21
2024-01-20T07:22:58.814Z,-0.22
2024-01-20T07:23:58.878Z,-0.22
2024-01-20T07:24:58.791Z,-0.22
2024-01-20T07:25:58.806Z,-0.21
2024-01-20T07:26:58.811Z,-0.21
2024-01-20T07:27:58.778Z,-0.18
2024-01-20T07:28:59.492Z,-0.16
2024-01-20T07:29:58.801Z,-0.19
2024-01-20T07:30:58.736Z,-0.16
2024-01-20T07:31:58.731Z,-0.16
2024-01-20T07:32:58.815Z,-0.19
2024-01-20T07:33:58.793Z,-0.18
2024-01-20T07:34:58.779Z,-0.16
2024-01-20T07:35:58.831Z,-0.18
2024-01-20T07:36:58.669Z,-0.18
2024-01-20T07:37:58.665Z,-0.16
2024-01-20T07:38:58.782Z,-0.18
2024-01-20T07:39:58.649Z,-0.18
2024-01-20T07:40:58.643Z,-0.19
2024-01-20T07:41:58.796Z,-0.21
2024-01-20T07:42:58.635Z,-0.18
2024-01-20T07:43:58.621Z,-0.16
2024-01-20T07:44:58.608Z,-0.16
2024-01-20T07:45:58.619Z,-0.18
2024-01-20T07:46:58.616Z,-0.18
2024-01-20T07:47:58.646Z,-0.19
2024-01-20T07:48:58.609Z,-0.18
2024-01-20T07:49:58.548Z,-0.16
2024-01-20T07:50:58.553Z,-0.18
2024-01-20T07:51:58.516Z,-0.16
2024-01-20T07:52:58.505Z,-0.16
2024-01-20T07:53:58.563Z,-0.15
2024-01-20T07:54:58.502Z,-0.15
2024-01-20T07:55:58.492Z,-0.14
2024-01-20T07:56:58.482Z,-0.14
2024-01-20T07:57:58.474Z,-0.11
2024-01-20T07:58:58.453Z,-0.11
2024-01-20T07:59:58.508Z,-0.11
2024-01-20T08:00:58.479Z,-0.10
2024-01-20T08:01:58.415Z,-0.11
2024-01-20T08:02:58.488Z,-0.11
2024-01-20T08:03:58.434Z,-0.14
2024-01-20T08:04:58.392Z,-0.10
2024-01-20T08:05:58.479Z,-0.08
2024-01-20T08:06:58.774Z,-0.08
2024-01-20T08:07:58.350Z,-0.10
2024-01-20T08:08:58.371Z,-0.10
2024-01-20T08:09:58.462Z,-0.07
2024-01-20T08:10:58.325Z,-0.08
2024-01-20T08:11:58.399Z,-0.05
2024-01-20T08:12:58.289Z,-0.05
2024-01-20T08:13:58.300Z,-0.04
2024-01-20T08:14:58.307Z,-0.04
2024-01-20T08:15:58.314Z,-0.04
2024-01-20T08:16:58.279Z,-0.05
2024-01-20T08:17:58.446Z,-0.04
2024-01-20T08:18:58.403Z,0.00
2024-01-20T08:19:58.251Z,-0.04
2024-01-20T08:20:59.205Z,-0.01
2024-01-20T08:21:58.221Z,-0.01
2024-01-20T08:22:58.187Z,0.03
2024-01-20T08:23:58.262Z,0.03
2024-01-20T08:24:58.161Z,0.03
2024-01-20T08:25:58.166Z,0.03
2024-01-20T08:26:58.137Z,0.07
2024-01-20T08:27:58.142Z,0.07
2024-01-20T08:28:58.122Z,0.04
2024-01-20T08:29:58.245Z,0.10
2024-01-20T08:30:58.292Z,0.08
2024-01-20T08:31:58.106Z,0.08
2024-01-20T08:33:01.681Z,0.10
2024-01-20T08:33:59.197Z,0.08
2024-01-20T08:34:58.067Z,0.08
2024-01-20T08:35:58.160Z,0.10
2024-01-20T08:36:58.043Z,0.10
2024-01-20T08:37:58.029Z,0.08
2024-01-20T08:38:58.049Z,0.11
2024-01-20T08:39:58.017Z,0.15
2024-01-20T08:40:59.224Z,0.17
2024-01-20T08:41:58.046Z,0.18
2024-01-20T08:42:57.975Z,0.17
2024-01-20T08:43:57.977Z,0.17
2024-01-20T08:44:58.012Z,0.18
2024-01-20T08:45:57.970Z,0.18
2024-01-20T08:46:57.966Z,0.18
2024-01-20T08:47:58.056Z,0.21
2024-01-20T08:48:57.909Z,0.17
2024-01-20T08:49:57.916Z,0.20
2024-01-20T08:50:57.927Z,0.21
2024-01-20T08:51:57.888Z,0.20
2024-01-20T08:52:57.942Z,0.20
2024-01-20T08:53:57.930Z,0.23
2024-01-20T08:54:57.843Z,0.20
2024-01-20T08:55:57.837Z,0.21
2024-01-20T08:56:57.856Z,0.23
2024-01-20T08:57:57.827Z,0.24
2024-01-20T08:58:57.808Z,0.28
2024-01-20T08:59:57.877Z,0.29
2024-01-20T09:00:57.937Z,0.28
2024-01-20T09:01:57.778Z,0.21
2024-01-20T09:02:57.866Z,0.21
2024-01-20T09:03:57.947Z,0.21
2024-01-20T09:04:57.747Z,0.23
2024-01-20T09:05:57.933Z,0.20
2024-01-20T09:06:57.766Z,0.21
2024-01-20T09:07:57.727Z,0.23
2024-01-20T09:08:58.677Z,0.24
2024-01-20T09:09:59.062Z,0.26
2024-01-20T09:10:57.687Z,0.28
2024-01-20T09:11:57.732Z,0.29
2024-01-20T09:12:57.651Z,0.29
2024-01-20T09:13:57.649Z,0.33
2024-01-20T09:14:57.697Z,0.38
2024-01-20T09:15:57.709Z,0.38
2024-01-20T09:16:57.643Z,0.39
2024-01-20T09:17:57.758Z,0.38
2024-01-20T09:18:57.680Z,0.41
2024-01-20T09:19:57.733Z,0.39
2024-01-20T09:20:57.575Z,0.36
2024-01-20T09:21:57.567Z,0.42
2024-01-20T09:22:57.539Z,0.41
2024-01-20T09:23:57.610Z,0.44
2024-01-20T09:24:57.511Z,0.36
2024-01-20T09:25:57.535Z,0.33
2024-01-20T09:26:57.559Z,0.36
2024-01-20T09:27:57.515Z,0.41
2024-01-20T09:28:57.461Z,0.38
2024-01-20T09:29:57.531Z,0.36
2024-01-20T09:30:57.470Z,0.36
2024-01-20T09:31:57.444Z,0.38
2024-01-20T09:32:57.525Z,0.38
2024-01-20T09:33:57.517Z,0.36
2024-01-20T09:34:57.433Z,0.36
2024-01-20T09:35:57.481Z,0.36
2024-01-20T09:36:57.393Z,0.36
2024-01-20T09:37:57.372Z,0.36
2024-01-20T09:38:57.401Z,0.36
2024-01-20T09:39:57.345Z,0.39
2024-01-20T09:40:57.345Z,0.39
2024-01-20T09:41:57.383Z,0.44
2024-01-20T09:42:57.343Z,0.53
2024-01-20T09:43:57.309Z,0.49
2024-01-20T09:44:57.335Z,0.55
2024-01-20T09:45:57.295Z,0.53
2024-01-20T09:46:57.279Z,0.53
2024-01-20T09:47:57.450Z,0.51
2024-01-20T09:48:57.431Z,0.51
2024-01-20T09:49:57.259Z,0.53
2024-01-20T09:50:57.273Z,0.53
2024-01-20T09:51:57.229Z,0.55
2024-01-20T09:52:57.223Z,0.57
2024-01-20T09:53:57.271Z,0.62
2024-01-20T09:54:57.190Z,0.61
2024-01-20T09:55:57.180Z,0.57
2024-01-20T09:56:57.172Z,0.57
2024-01-20T09:57:57.154Z,0.65
2024-01-20T09:58:57.172Z,0.70
2024-01-20T09:59:58.240Z,0.78
2024-01-20T10:00:57.195Z,0.78
2024-01-20T10:01:57.102Z,0.80
2024-01-20T10:02:57.120Z,0.78
2024-01-20T10:03:57.165Z,0.79
2024-01-20T10:04:57.150Z,0.78
2024-01-20T10:05:57.138Z,0.76
2024-01-20T10:06:57.064Z,0.78
2024-01-20T10:07:57.071Z,0.79
2024-01-20T10:08:57.126Z,0.79
2024-01-20T10:09:57.020Z,0.76
2024-01-20T10:10:57.052Z,0.75
2024-01-20T10:11:57.064Z,0.76
2024-01-20T10:12:56.989Z,0.78
2024-01-20T10:13:56.971Z,0.76
2024-01-20T10:14:57.017Z,0.73
2024-01-20T10:15:57.024Z,0.76
2024-01-20T10:16:56.952Z,0.84
2024-01-20T10:17:57.077Z,0.87
2024-01-20T10:18:57.038Z,0.96
2024-01-20T10:19:57.024Z,1.02
2024-01-20T10:20:56.968Z,1.08
2024-01-20T10:21:56.884Z,1.18
2024-01-20T10:22:56.890Z,1.32
2024-01-20T10:23:56.925Z,1.45
2024-01-20T10:24:56.884Z,1.55
2024-01-20T10:25:56.851Z,1.58
2024-01-20T10:26:56.888Z,1.59
2024-01-20T10:27:56.843Z,1.58
2024-01-20T10:28:56.827Z,1.47
2024-01-20T10:29:56.986Z,1.40
2024-01-20T10:30:56.849Z,1.26
2024-01-20T10:31:57.781Z,1.22
2024-01-20T10:33:08.220Z,1.14
2024-01-20T10:33:57.887Z,1.14
2024-01-20T10:34:56.937Z,1.09
2024-01-20T10:35:56.887Z,1.11
2024-01-20T10:36:56.747Z,1.14
2024-01-20T10:37:56.738Z,1.14
2024-01-20T10:38:56.792Z,1.12
2024-01-20T10:39:56.739Z,1.09
2024-01-20T10:40:56.730Z,1.12
2024-01-20T10:41:56.856Z,1.11
2024-01-20T10:42:56.694Z,1.12
2024-01-20T10:43:56.666Z,1.09
2024-01-20T10:44:56.694Z,1.09
2024-01-20T10:45:56.661Z,1.09
2024-01-20T10:46:56.646Z,1.04
2024-01-20T10:47:56.745Z,1.04
2024-01-20T10:48:56.743Z,1.00
2024-01-20T10:49:56.635Z,1.02
2024-01-20T10:50:56.755Z,1.04
2024-01-20T10:51:56.694Z,1.04
2024-01-20T10:52:56.595Z,1.06
2024-01-20T10:53:56.644Z,1.09
2024-01-20T10:54:56.568Z,1.11
2024-01-20T10:55:56.567Z,1.09
2024-01-20T10:56:56.587Z,1.11
2024-01-20T10:57:56.541Z,1.15
2024-01-20T10:58:56.543Z,1.09
2024-01-20T10:59:56.598Z,1.11
2024-01-20T11:00:56.584Z,1.15
2024-01-20T11:01:56.494Z,1.23
2024-01-20T11:02:56.512Z,1.32
2024-01-20T11:03:56.572Z,1.36
2024-01-20T11:04:56.463Z,1.40
2024-01-20T11:05:56.570Z,1.34
2024-01-20T11:06:56.511Z,1.37
2024-01-20T11:07:56.436Z,1.42
2024-01-20T11:08:56.492Z,1.45
2024-01-20T11:09:56.407Z,1.41
2024-01-20T11:10:56.425Z,1.40
2024-01-20T11:11:56.523Z,1.42
2024-01-20T11:12:56.391Z,1.48
2024-01-20T11:13:56.371Z,1.52
2024-01-20T11:14:56.501Z,1.65
2024-01-20T11:15:56.349Z,1.73
2024-01-20T11:16:56.355Z,1.70
2024-01-20T11:17:56.430Z,1.80
2024-01-20T11:18:56.376Z,1.87
2024-01-20T11:19:56.333Z,2.05
2024-01-20T11:20:56.382Z,2.16
2024-01-20T11:21:56.286Z,2.27
2024-01-20T11:22:56.308Z,2.39
2024-01-20T11:23:56.334Z,2.53
2024-01-20T11:24:56.293Z,2.60
2024-01-20T11:25:56.249Z,2.61
2024-01-20T11:26:56.250Z,2.66
2024-01-20T11:27:56.219Z,2.79
2024-01-20T11:28:56.208Z,2.96
2024-01-20T11:29:56.235Z,3.13
2024-01-20T11:30:56.217Z,3.23
2024-01-20T11:31:56.172Z,3.24
2024-01-20T11:32:56.242Z,3.29
2024-01-20T11:33:56.243Z,3.31
2024-01-20T11:34:56.173Z,3.23
2024-01-20T11:35:56.183Z,3.21
2024-01-20T11:36:56.145Z,3.28
2024-01-20T11:37:56.114Z,3.33
2024-01-20T11:38:57.057Z,3.32
2024-01-20T11:39:56.088Z,3.29
2024-01-20T11:40:56.094Z,3.11
2024-01-20T11:41:56.104Z,3.05
2024-01-20T11:42:56.071Z,3.10
2024-01-20T11:43:56.048Z,3.21
2024-01-20T11:44:56.048Z,3.40
2024-01-20T11:45:56.033Z,3.40
2024-01-20T11:46:56.032Z,3.32
2024-01-20T11:47:56.043Z,3.35
2024-01-20T11:48:56.284Z,3.26
2024-01-20T11:49:56.156Z,3.10
2024-01-20T11:50:56.021Z,3.21
2024-01-20T11:51:55.956Z,3.29
2024-01-20T11:52:55.967Z,3.20
2024-01-20T11:53:55.993Z,3.13
2024-01-20T11:54:56.899Z,3.14
2024-01-20T11:55:55.969Z,3.23
2024-01-20T11:56:55.906Z,3.39
2024-01-20T11:57:55.965Z,3.43
2024-01-20T11:58:55.891Z,3.32
2024-01-20T11:59:55.911Z,3.31
2024-01-20T12:00:56.704Z,3.15
2024-01-20T12:01:55.842Z,3.11
2024-01-20T12:02:55.976Z,3.11
2024-01-20T12:03:55.866Z,3.17
2024-01-20T12:05:01.804Z,3.14
2024-01-20T12:05:56.979Z,3.13
2024-01-20T12:06:55.857Z,3.11
2024-01-20T12:07:55.778Z,3.21
2024-01-20T12:08:55.785Z,3.10
2024-01-20T12:09:55.762Z,3.08
2024-01-20T12:10:55.760Z,3.11
2024-01-20T12:11:55.936Z,3.14
2024-01-20T12:12:55.745Z,3.14
2024-01-20T12:13:55.760Z,3.13
2024-01-20T12:14:55.717Z,3.13
2024-01-20T12:15:55.696Z,3.13
2024-01-20T12:16:55.704Z,3.08
2024-01-20T12:17:55.765Z,3.11
2024-01-20T12:18:55.752Z,3.08
2024-01-20T12:19:55.721Z,3.14
2024-01-20T12:20:55.651Z,3.08
2024-01-20T12:21:55.622Z,3.06
2024-01-20T12:22:55.636Z,3.05
2024-01-20T12:23:55.679Z,3.15
2024-01-20T12:24:55.610Z,3.14
2024-01-20T12:25:55.603Z,3.11
2024-01-20T12:26:55.607Z,3.03
2024-01-20T12:27:55.577Z,3.02
2024-01-20T12:28:55.584Z,3.06
2024-01-20T12:29:55.657Z,3.10
2024-01-20T12:30:55.571Z,3.02
2024-01-20T12:31:55.565Z,2.93
2024-01-20T12:32:55.603Z,3.03
2024-01-20T12:33:55.557Z,3.17
2024-01-20T12:34:55.528Z,3.26
2024-01-20T12:35:55.501Z,3.35
2024-01-20T12:36:55.491Z,3.32
2024-01-20T12:37:55.443Z,3.39
2024-01-20T12:38:55.473Z,3.50
2024-01-20T12:39:55.437Z,3.55
2024-01-20T12:40:55.491Z,3.60
2024-01-20T12:41:55.459Z,3.73
2024-01-20T12:42:55.415Z,3.86
2024-01-20T12:43:55.383Z,3.96
2024-01-20T12:44:55.399Z,3.98
2024-01-20T12:45:55.376Z,3.97
2024-01-20T12:46:55.381Z,4.05
2024-01-20T12:47:55.440Z,3.97
2024-01-20T12:48:55.428Z,4.14
2024-01-20T12:49:55.469Z,4.26
2024-01-20T12:50:55.341Z,4.47
2024-01-20T12:51:55.295Z,4.59
2024-01-20T12:52:55.323Z,4.75
2024-01-20T12:53:55.309Z,4.75
2024-01-20T12:54:55.324Z,4.85
2024-01-20T12:55:55.266Z,4.86
2024-01-20T12:56:55.261Z,4.67
2024-01-20T12:57:55.235Z,4.58
2024-01-20T12:58:55.229Z,4.59
2024-01-20T12:59:55.282Z,4.55
2024-01-20T13:00:55.319Z,4.51
2024-01-20T13:01:55.221Z,4.52
2024-01-20T13:02:55.190Z,4.67
2024-01-20T13:03:55.188Z,4.66
2024-01-20T13:04:55.211Z,4.72
2024-01-20T13:05:55.277Z,4.82
2024-01-20T13:06:55.185Z,4.86
2024-01-20T13:07:55.132Z,4.88
2024-01-20T13:08:55.123Z,5.03
2024-01-20T13:09:55.093Z,4.86